Skip Navigation Links
NOAA logo - Click to go to the NOAA homepage
NOAA's National Weather Service
Alaska Aviation Weather Unit
  NWS logo - Click to go to the NWS homepage
Left Navbar Graphic     21 AKDT = 05 GMT

   
NOAA is celebrating 200 years of science, service, and stewardship. Visit the NOAA 200th celebration Web site to learn more.
USA.gov is the U.S. Government's official Web portal to all Federal, state and local government Web resources and services.
Facebook
NWS on Facebook

AAWU Home :: Display TAF Add Bookmark
METAR PAGL 262316Z AUTO 30004KT 10SM BKN031 OVC039 06/M02 A2960 RMK
     AO1=

METAR PAGL 262336Z AUTO 30003KT 10SM FEW031 BKN039 08/M01 A2960 RMK
 AO1=

METAR PAGL 262356Z AUTO 28003KT 10SM SCT041 SCT048 BKN070 07/M01 A2960
     RMK AO1 10080 20020 400800000 52003=

METAR PAGL 270016Z AUTO 31003KT 10SM FEW033 BKN043 BKN070 07/M01 A2960
     RMK AO1=

METAR PAGL 270036Z AUTO 29003KT 10SM FEW035 BKN043 08/M01 A2960 RMK
     AO1=

METAR PAGL 270056Z AUTO 19004KT 10SM SCT038 SCT044 08/M01 A2960 RMK
     AO1=

METAR PAGL 270116Z AUTO 29003KT 9SM BKN037 08/M01 A2960 RMK AO1=

METAR PAGL 270136Z AUTO 28003KT 10SM FEW039 08/M01 A2960 RMK AO1=

METAR PAGL 270156Z AUTO 27004KT 10SM CLR 08/M01 A2960 RMK AO1=

METAR PAGL 270216Z AUTO 28005KT 10SM CLR 08/M01 A2960 RMK AO1=

METAR PAGL 270236Z AUTO 29005KT 10SM CLR 07/M01 A2960 RMK AO1=

METAR PAGL 270256Z AUTO 27005KT 10SM CLR 08/M01 A2960 RMK AO1 54000=

METAR PAGL 270316Z AUTO 29006KT 10SM BKN037 08/M01 A2960 RMK AO1=

METAR PAGL 270336Z AUTO 30004KT 10SM SCT037 07/M01 A2960 RMK AO1=

METAR PAGL 270356Z AUTO 29005KT 10SM CLR 07/M01 A2960 RMK AO1=

METAR PAGL 270416Z AUTO 30004KT 10SM CLR 06/M01 A2960 RMK AO1=

METAR PAGL 270436Z AUTO 00000KT 10SM FEW039 04/M02 A2961 RMK AO1=

METAR PAGL 270456Z AUTO 00000KT 10SM SCT041 06/M01 A2961 RMK AO1=


NOAA's National Weather Service
Alaska Aviation Weather Unit
6930 Sand Lake Road
Anchorage, AK 99502-1845
Disclaimer
Credits
Glossary
Privacy Policy
About Us
Career Opportunities
Contact AAWU Internet Services Site last modified: April, 17th 2012